• Join FlightAware (Why Join?)
  • Login
  • US Flag 
12:51AM EST


 

Airport Tracker/Info


-or-


 

Live Flight TrackerFlight Track Log ✈ TCF3444 ✈ 05-May-2013 ✈ KORD - KPIT

Flight Track Log - Related Links

Times and Time Zones

All times are in EDT time to prevent confusion due to time zone crossing. See the TCF3444 flight status page for this flight to view local times or setup timezone preferences in your user account.

Time Position Orientation Groundspeed Altitude Reporting Facility
EDT Latitude Longitude Course Direction KTS MPH feet Rate Location/Type
10:27PM 41.9833 -87.8333 118° Southeast 166 191 3,500  Level Chicago TRACON
10:28PM 41.9500 -87.7500 118° Southeast 236 272 6,700 2,880 Climbing Chicago TRACON
10:29PM 41.9544 -87.5961 88° East 270 311 12,000 2,880 Climbing Chicago Center
10:30PM 41.9525 -87.4886 91° East 285 328 14,600 2,220 Climbing Chicago Center
10:31PM 41.9406 -87.3714 98° East 317 365 16,600 2,100 Climbing Chicago Center
10:32PM 41.8992 -87.2175 110° East 370 426 18,900 2,160 Climbing Chicago Center
10:33PM 41.8867 -87.0750 97° East 386 444 21,100 2,040 Climbing Chicago Center
10:35PM 41.8742 -86.9306 97° East 390 449 23,100 1,800 Climbing Chicago Center
10:36PM 41.8347 -86.7911 111° Southeast 406 467 24,800 1,380 Climbing Chicago Center
10:37PM 41.7883 -86.6647 116° Southeast 411 473 26,000 540 Climbing Chicago Center
10:38PM 41.7742 -86.5128 97° East 411 473 26,000  Level Chicago Center
10:39PM 41.7658 -86.3558 94° East 422 486 26,000 180 Level Chicago Center
10:40PM 41.7547 -86.1708 95° East 417 480 26,400 780 Climbing Chicago Center
10:41PM 41.7461 -86.0142 94° East 422 486 27,700 1,140 Climbing Chicago Center
10:42PM 41.7361 -85.8567 95° East 425 489 28,800 1,080 Climbing Chicago Center
10:43PM 41.7261 -85.6953 95° East 433 498 29,900 900 Climbing Chicago Center
10:44PM 41.7175 -85.5311 94° East 439 505 30,700 480 Climbing Chicago Center
10:45PM 41.7050 -85.3836 96° East 436 502 31,000 120 Climbing Chicago Center
10:46PM 41.6958 -85.1917 94° East 451 519 31,000  Level Chicago Center
10:47PM 41.6869 -85.0603 95° East 447 514 31,000  Level Cleveland Center
10:48PM 41.6764 -84.9011 95° East 441 507 31,000  Level Cleveland Center
10:49PM 41.6553 -84.7383 100° East 441 507 31,000  Level Cleveland Center
10:50PM 41.6211 -84.5833 106° East 435 501 31,000  Level Cleveland Center
10:51PM 41.5847 -84.4311 108° East 435 501 31,000  Level Cleveland Center
10:52PM 41.5481 -84.2736 107° East 435 501 31,000  Level Cleveland Center
10:53PM 41.5111 -84.1300 109° East 440 506 31,000  Level Cleveland Center
10:54PM 41.4719 -83.9753 109° East 440 506 31,000  Level Cleveland Center
10:55PM 41.4328 -83.8181 108° East 440 506 31,000  Level Cleveland Center
10:56PM 41.3953 -83.6642 108° East 440 506 31,000  Level Cleveland Center
10:57PM 41.3556 -83.5072 109° East 447 514 31,000  Level Cleveland Center
10:58PM 41.3178 -83.3506 108° East 447 514 31,000  Level Cleveland Center
10:59PM 41.2778 -83.1942 109° East 447 514 31,000  Level Cleveland Center
11:00PM 41.2333 -83.0239 109° East 447 514 31,000  Level Cleveland Center
11:01PM 41.1908 -82.8678 110° East 447 514 31,000  Level Cleveland Center
11:02PM 41.1500 -82.7147 109° East 447 514 31,000 -360 Level Cleveland Center
11:03PM 41.1089 -82.5592 109° East 452 520 30,300 -1,320 Descending Cleveland Center
11:04PM 41.0700 -82.4036 108° East 447 514 28,400 -1,860 Descending Cleveland Center
11:05PM 41.0283 -82.2567 111° Southeast 437 503 26,600 -1,800 Descending Cleveland Center
11:06PM 40.9908 -82.1125 109° East 420 483 24,800 -1,800 Descending Cleveland Center
11:07PM 40.9531 -81.9742 110° East 413 475 23,000 -1,800 Descending Cleveland Center
11:08PM 40.9150 -81.8361 110° East 408 470 21,300 -1,620 Descending Cleveland Center
11:09PM 40.8767 -81.7008 111° Southeast 398 458 19,800 -1,800 Descending Cleveland Center
11:10PM 40.8425 -81.5683 109° East 387 445 17,800 -1,800 Descending Cleveland Center
11:11PM 40.8039 -81.4389 111° Southeast 382 440 16,300 -1,620 Descending Cleveland Center
11:12PM 40.7694 -81.3125 110° East 377 434 14,600 -1,620 Descending Cleveland Center
11:13PM 40.7347 -81.1914 111° Southeast 367 422 13,100 -1,500 Descending Cleveland Center
11:14PM 40.7019 -81.0733 110° East 348 400 11,600 -1,440 Descending Cleveland Center
11:15PM 40.6731 -80.9636 109° East 353 406 10,300 -840 Descending Cleveland Center
11:16PM 40.6422 -80.8567 111° Southeast 335 386 10,000 -780 Descending Cleveland Center
11:17PM 40.6153 -80.7636 111° Southeast 304 350 8,800 -1,380 Descending Cleveland Center
11:18PM 40.5883 -80.6678 110° East 284 327 7,300 -1,500 Descending Cleveland Center
11:19PM 40.5611 -80.5778 112° Southeast 272 313 5,900 -1,380 Descending Cleveland Center
11:20PM 40.5383 -80.4956 110° East 259 298 4,600 -1,200 Descending Cleveland Center
11:21PM 40.5194 -80.4300 111° Southeast 224 258 3,600 -900 Descending Cleveland Center
11:22PM 40.5047 -80.3783 111° Southeast 182 209 2,800 -780 Descending Cleveland Center
11:23PM 40.5025 -80.3208 93° East 152 175 2,100 -720 Descending Cleveland Center